sensor_id;sensor_type;location;lat;lon;timestamp;P1;durP1;ratioP1;P2;durP2;ratioP2
30462;SDS011;17256;43.618;25.336;2022-12-18T00:24:16;17.13;;;11.93;;
30462;SDS011;17256;43.618;25.336;2022-12-18T00:27:08;17.67;;;12.93;;
30462;SDS011;17256;43.618;25.336;2022-12-18T00:30:29;18.40;;;11.83;;
30462;SDS011;17256;43.618;25.336;2022-12-18T00:33:24;17.77;;;12.10;;
30462;SDS011;17256;43.618;25.336;2022-12-18T00:35:52;14.73;;;10.73;;
30462;SDS011;17256;43.618;25.336;2022-12-18T00:38:53;16.20;;;11.77;;
30462;SDS011;17256;43.618;25.336;2022-12-18T00:41:30;18.43;;;12.93;;
30462;SDS011;17256;43.618;25.336;2022-12-18T00:48:19;16.60;;;12.07;;
30462;SDS011;17256;43.618;25.336;2022-12-18T00:51:21;17.47;;;11.17;;
30462;SDS011;17256;43.618;25.336;2022-12-18T00:54:36;14.70;;;10.90;;
30462;SDS011;17256;43.618;25.336;2022-12-18T00:57:42;17.47;;;13.13;;
30462;SDS011;17256;43.618;25.336;2022-12-18T01:01:14;20.47;;;13.03;;
30462;SDS011;17256;43.618;25.336;2022-12-18T01:04:03;17.50;;;11.50;;
30462;SDS011;17256;43.618;25.336;2022-12-18T01:14:03;15.47;;;12.10;;
30462;SDS011;17256;43.618;25.336;2022-12-18T01:16:59;15.80;;;12.67;;
30462;SDS011;17256;43.618;25.336;2022-12-18T01:20:34;18.00;;;13.00;;
30462;SDS011;17256;43.618;25.336;2022-12-18T01:23:31;15.00;;;12.00;;
30462;SDS011;17256;43.618;25.336;2022-12-18T01:26:45;16.53;;;11.17;;
30462;SDS011;17256;43.618;25.336;2022-12-18T01:29:42;15.20;;;10.83;;
30462;SDS011;17256;43.618;25.336;2022-12-18T01:32:36;16.73;;;12.27;;
30462;SDS011;17256;43.618;25.336;2022-12-18T01:35:28;16.20;;;12.13;;
30462;SDS011;17256;43.618;25.336;2022-12-18T01:38:31;15.00;;;11.33;;
30462;SDS011;17256;43.618;25.336;2022-12-18T01:41:23;15.73;;;12.00;;
30462;SDS011;17256;43.618;25.336;2022-12-18T01:53:16;15.67;;;12.30;;
30462;SDS011;17256;43.618;25.336;2022-12-18T01:57:12;18.27;;;12.50;;
30462;SDS011;17256;43.618;25.336;2022-12-18T02:00:38;18.10;;;11.90;;
30462;SDS011;17256;43.618;25.336;2022-12-18T02:04:19;20.70;;;13.77;;
30462;SDS011;17256;43.618;25.336;2022-12-18T02:11:01;20.80;;;15.17;;
30462;SDS011;17256;43.618;25.336;2022-12-18T02:17:07;20.93;;;16.13;;
30462;SDS011;17256;43.618;25.336;2022-12-18T02:33:32;21.27;;;13.03;;
30462;SDS011;17256;43.618;25.336;2022-12-18T02:36:51;18.77;;;13.37;;
30462;SDS011;17256;43.618;25.336;2022-12-18T02:44:35;18.63;;;12.93;;
30462;SDS011;17256;43.618;25.336;2022-12-18T03:22:02;24.77;;;16.43;;
30462;SDS011;17256;43.618;25.336;2022-12-18T03:25:01;25.27;;;17.77;;
30462;SDS011;17256;43.618;25.336;2022-12-18T03:28:28;25.57;;;16.87;;
30462;SDS011;17256;43.618;25.336;2022-12-18T03:41:49;31.13;;;19.83;;
30462;SDS011;17256;43.618;25.336;2022-12-18T03:49:08;30.73;;;20.73;;
30462;SDS011;17256;43.618;25.336;2022-12-18T03:51:52;32.90;;;19.90;;
30462;SDS011;17256;43.618;25.336;2022-12-18T03:55:00;29.70;;;18.40;;
30462;SDS011;17256;43.618;25.336;2022-12-18T03:58:22;33.67;;;19.63;;
30462;SDS011;17256;43.618;25.336;2022-12-18T04:01:23;29.93;;;21.30;;
30462;SDS011;17256;43.618;25.336;2022-12-18T04:04:23;30.07;;;19.17;;
30462;SDS011;17256;43.618;25.336;2022-12-18T04:08:04;28.30;;;19.47;;
30462;SDS011;17256;43.618;25.336;2022-12-18T04:11:27;27.87;;;18.70;;
30462;SDS011;17256;43.618;25.336;2022-12-18T04:14:09;30.43;;;20.13;;
30462;SDS011;17256;43.618;25.336;2022-12-18T04:21:28;30.93;;;20.47;;
30462;SDS011;17256;43.618;25.336;2022-12-18T04:25:31;28.60;;;18.57;;
30462;SDS011;17256;43.618;25.336;2022-12-18T04:28:52;29.20;;;19.20;;
30462;SDS011;17256;43.618;25.336;2022-12-18T04:31:58;31.27;;;19.60;;
30462;SDS011;17256;43.618;25.336;2022-12-18T04:35:12;31.97;;;19.63;;
30462;SDS011;17256;43.618;25.336;2022-12-18T04:38:32;32.03;;;20.57;;
30462;SDS011;17256;43.618;25.336;2022-12-18T04:42:05;33.93;;;21.53;;
30462;SDS011;17256;43.618;25.336;2022-12-18T04:45:31;42.30;;;26.13;;
30462;SDS011;17256;43.618;25.336;2022-12-18T04:48:29;30.40;;;20.77;;
30462;SDS011;17256;43.618;25.336;2022-12-18T04:51:50;33.43;;;21.50;;
30462;SDS011;17256;43.618;25.336;2022-12-18T04:54:56;34.53;;;21.17;;
30462;SDS011;17256;43.618;25.336;2022-12-18T05:07:55;28.30;;;19.03;;
30462;SDS011;17256;43.618;25.336;2022-12-18T05:11:21;30.40;;;22.03;;
30462;SDS011;17256;43.618;25.336;2022-12-18T05:17:49;32.30;;;21.43;;
30462;SDS011;17256;43.618;25.336;2022-12-18T05:21:18;27.83;;;18.40;;
30462;SDS011;17256;43.618;25.336;2022-12-18T05:24:34;31.80;;;20.67;;
30462;SDS011;17256;43.618;25.336;2022-12-18T05:27:30;34.90;;;22.73;;
30462;SDS011;17256;43.618;25.336;2022-12-18T05:30:41;33.77;;;24.63;;
30462;SDS011;17256;43.618;25.336;2022-12-18T05:33:53;35.20;;;23.43;;
30462;SDS011;17256;43.618;25.336;2022-12-18T05:37:27;32.20;;;21.97;;
30462;SDS011;17256;43.618;25.336;2022-12-18T05:41:47;33.10;;;22.70;;
30462;SDS011;17256;43.618;25.336;2022-12-18T05:44:49;32.73;;;21.63;;
30462;SDS011;17256;43.618;25.336;2022-12-18T05:48:07;35.00;;;22.73;;
30462;SDS011;17256;43.618;25.336;2022-12-18T05:51:25;30.17;;;19.90;;
30462;SDS011;17256;43.618;25.336;2022-12-18T06:10:29;34.93;;;25.17;;
30462;SDS011;17256;43.618;25.336;2022-12-18T06:14:06;28.13;;;19.77;;
30462;SDS011;17256;43.618;25.336;2022-12-18T06:17:06;33.50;;;22.13;;
30462;SDS011;17256;43.618;25.336;2022-12-18T06:19:51;31.80;;;21.03;;
30462;SDS011;17256;43.618;25.336;2022-12-18T06:22:48;31.67;;;20.77;;
30462;SDS011;17256;43.618;25.336;2022-12-18T06:26:27;28.10;;;20.70;;
30462;SDS011;17256;43.618;25.336;2022-12-18T06:29:15;25.97;;;18.83;;
30462;SDS011;17256;43.618;25.336;2022-12-18T06:32:38;33.07;;;22.10;;
30462;SDS011;17256;43.618;25.336;2022-12-18T06:35:38;28.60;;;20.47;;
30462;SDS011;17256;43.618;25.336;2022-12-18T06:47:08;31.27;;;20.40;;
30462;SDS011;17256;43.618;25.336;2022-12-18T06:50:03;30.97;;;19.97;;
30462;SDS011;17256;43.618;25.336;2022-12-18T06:53:14;28.53;;;20.00;;
30462;SDS011;17256;43.618;25.336;2022-12-18T06:57:00;27.70;;;19.53;;
30462;SDS011;17256;43.618;25.336;2022-12-18T07:14:27;39.10;;;24.93;;
30462;SDS011;17256;43.618;25.336;2022-12-18T07:17:43;30.30;;;20.93;;
30462;SDS011;17256;43.618;25.336;2022-12-18T07:20:52;32.67;;;21.93;;
30462;SDS011;17256;43.618;25.336;2022-12-18T07:27:13;32.33;;;22.77;;
30462;SDS011;17256;43.618;25.336;2022-12-18T07:30:46;32.87;;;22.97;;
30462;SDS011;17256;43.618;25.336;2022-12-18T07:34:19;33.93;;;22.47;;
30462;SDS011;17256;43.618;25.336;2022-12-18T07:41:53;30.67;;;22.03;;
30462;SDS011;17256;43.618;25.336;2022-12-18T08:10:19;35.60;;;22.13;;
30462;SDS011;17256;43.618;25.336;2022-12-18T08:12:44;29.47;;;20.50;;
30462;SDS011;17256;43.618;25.336;2022-12-18T08:15:10;28.40;;;20.10;;
30462;SDS011;17256;43.618;25.336;2022-12-18T08:53:42;31.43;;;20.37;;
30462;SDS011;17256;43.618;25.336;2022-12-18T08:57:02;31.30;;;19.50;;
30462;SDS011;17256;43.618;25.336;2022-12-18T09:08:06;34.27;;;21.37;;
30462;SDS011;17256;43.618;25.336;2022-12-18T09:13:56;34.77;;;24.73;;
30462;SDS011;17256;43.618;25.336;2022-12-18T09:16:36;38.40;;;23.33;;
30462;SDS011;17256;43.618;25.336;2022-12-18T09:19:44;48.57;;;32.47;;
30462;SDS011;17256;43.618;25.336;2022-12-18T09:22:27;42.50;;;27.90;;
30462;SDS011;17256;43.618;25.336;2022-12-18T09:26:27;31.07;;;21.53;;
30462;SDS011;17256;43.618;25.336;2022-12-18T09:30:12;34.03;;;23.00;;
30462;SDS011;17256;43.618;25.336;2022-12-18T09:33:16;31.93;;;22.40;;
30462;SDS011;17256;43.618;25.336;2022-12-18T09:36:20;44.03;;;26.73;;
30462;SDS011;17256;43.618;25.336;2022-12-18T09:38:51;36.00;;;23.23;;
30462;SDS011;17256;43.618;25.336;2022-12-18T09:41:55;37.37;;;23.80;;
30462;SDS011;17256;43.618;25.336;2022-12-18T09:51:22;45.77;;;30.43;;
30462;SDS011;17256;43.618;25.336;2022-12-18T09:54:46;37.93;;;23.43;;
30462;SDS011;17256;43.618;25.336;2022-12-18T10:01:57;30.23;;;19.77;;
30462;SDS011;17256;43.618;25.336;2022-12-18T14:39:24;46.37;;;32.00;;
30462;SDS011;17256;43.618;25.336;2022-12-18T17:14:15;45.03;;;31.07;;
